KAVL/AVL METAR and TAF weather

Enter ICAO airport designator
Station Type Date Time Source
KAVL METAR 2019/06/16 11:54 UTC NOAA

KAVL 161154Z 00000KT 10SM CLR 17/14 A3013 RMK AO2 SLP180 T01720144 10194 20161 53009


Station Type Date Time Source
KAVL Decoded METAR 2019/06/16 11:54 UTC NOAA

ASHEVILLE REGIONAL AIRPORT, NC, United States (KAVL) 35-26N 82-32W 670M
Jun 16, 2019 - 07:54 AM EDT / 2019.06.16 1154 UTC
Wind: Calm:0
Visibility: 10 mile(s):0
Sky conditions: clear
Temperature: 63.0 F (17.2 C)
Dew Point: 57.9 F (14.4 C)
Relative Humidity: 83%
Pressure (altimeter): 30.13 in. Hg (1020 hPa)
Pressure tendency: 0.03 inches (0.9 hPa) higher than three hours ago
ob: KAVL 161154Z 00000KT 10SM CLR 17/14 A3013 RMK AO2 SLP180 T01720144 10194 20161 53009
cycle: 12

Station Type Date Time Source
KAVL TAF 2019/06/16 12:27 UTC NOAA

TAF KAVL 161125Z 1612/1712 19004KT P6SM SCT150
FM161700 23008KT P6SM VCTS SCT045CB
FM162300 20005KT P6SM SCT180
FM170800 VRB02KT 6SM BR SCT150

Example: see airport list